createdAt,value
2018-03-06T00:00:53.497Z,95.70
2018-03-06T00:01:56.074Z,95.70
2018-03-06T00:02:58.611Z,95.70
2018-03-06T00:04:01.170Z,95.60
2018-03-06T00:05:04.484Z,95.50
2018-03-06T00:06:07.060Z,95.50
2018-03-06T00:07:09.609Z,95.60
2018-03-06T00:08:12.184Z,95.20
2018-03-06T00:09:14.766Z,95.30
2018-03-06T00:10:17.308Z,95.30
2018-03-06T00:11:19.866Z,95.30
2018-03-06T00:12:22.413Z,95.30
2018-03-06T00:13:25.757Z,95.20
2018-03-06T00:14:28.300Z,95.20
2018-03-06T00:15:30.841Z,95.50
2018-03-06T00:16:34.185Z,95.70
2018-03-06T00:17:36.735Z,95.70
2018-03-06T00:18:39.314Z,95.80
2018-03-06T00:19:41.844Z,95.90
2018-03-06T00:20:45.170Z,95.90
2018-03-06T00:21:47.697Z,95.80
2018-03-06T00:22:50.272Z,95.90
2018-03-06T00:23:52.825Z,96.00
2018-03-06T00:24:55.400Z,96.30
2018-03-06T00:25:57.953Z,96.10
2018-03-06T00:27:00.507Z,96.20
2018-03-06T00:28:03.807Z,96.40
2018-03-06T00:29:07.113Z,96.40
2018-03-06T00:30:09.690Z,96.40
2018-03-06T00:31:12.224Z,96.30
2018-03-06T00:32:14.759Z,96.40
2018-03-06T00:33:17.302Z,96.50
2018-03-06T00:34:19.879Z,96.10
2018-03-06T00:35:22.415Z,96.10
2018-03-06T00:36:24.946Z,96.30
2018-03-06T00:37:28.299Z,96.40
2018-03-06T00:38:30.842Z,96.40
2018-03-06T00:39:33.431Z,96.50
2018-03-06T00:40:36.073Z,96.70
2018-03-06T00:41:38.645Z,96.90
2018-03-06T00:42:41.232Z,96.80
2018-03-06T00:43:43.780Z,96.80
2018-03-06T00:44:46.362Z,97.20
2018-03-06T00:45:48.902Z,96.70
2018-03-06T00:46:51.450Z,96.60
2018-03-06T00:47:53.997Z,96.30
2018-03-06T00:48:57.329Z,95.90
2018-03-06T00:49:59.921Z,95.90
2018-03-06T00:51:02.478Z,96.00
2018-03-06T00:52:05.018Z,95.80
2018-03-06T00:53:07.566Z,95.90
2018-03-06T00:54:10.122Z,96.00
2018-03-06T00:55:12.708Z,95.80
2018-03-06T00:56:15.253Z,95.70
2018-03-06T00:57:17.793Z,95.70
2018-03-06T00:58:20.325Z,95.70
2018-03-06T00:59:22.862Z,95.80
2018-03-06T01:00:25.436Z,96.10
2018-03-06T01:01:28.018Z,95.90
2018-03-06T01:02:30.573Z,96.00
2018-03-06T01:03:33.116Z,95.90
2018-03-06T01:04:36.429Z,95.70
2018-03-06T01:05:38.966Z,95.70
2018-03-06T01:06:42.319Z,95.60
2018-03-06T01:07:44.875Z,95.60
2018-03-06T01:08:47.399Z,95.70
2018-03-06T01:09:49.941Z,95.80
2018-03-06T01:10:53.255Z,96.00
2018-03-06T01:11:55.849Z,96.00
2018-03-06T01:12:58.393Z,96.00
2018-03-06T01:14:00.920Z,96.20
2018-03-06T01:15:03.448Z,96.30
2018-03-06T01:16:05.988Z,96.30
2018-03-06T01:17:08.561Z,96.20
2018-03-06T01:18:11.116Z,96.10
2018-03-06T01:19:13.667Z,96.10
2018-03-06T01:20:16.224Z,96.10
2018-03-06T01:21:19.566Z,96.20
2018-03-06T01:22:22.101Z,95.90
2018-03-06T01:23:24.653Z,96.20
2018-03-06T01:24:27.243Z,96.30
2018-03-06T01:25:29.788Z,96.50
2018-03-06T01:26:32.372Z,97.00
2018-03-06T01:27:34.906Z,97.60
2018-03-06T01:28:38.222Z,97.60
2018-03-06T01:29:40.769Z,97.60
2018-03-06T01:30:43.362Z,97.40
2018-03-06T01:31:45.914Z,97.20
2018-03-06T01:32:48.470Z,97.00
2018-03-06T01:33:51.027Z,96.90
2018-03-06T01:34:54.341Z,96.40
2018-03-06T01:35:56.934Z,96.40
2018-03-06T01:36:59.477Z,96.20
2018-03-06T01:38:02.017Z,96.20
2018-03-06T01:39:05.311Z,96.10
2018-03-06T01:40:07.864Z,96.30
2018-03-06T01:41:11.214Z,96.20
2018-03-06T01:42:13.785Z,96.20
2018-03-06T01:43:16.339Z,96.10
2018-03-06T01:44:18.895Z,96.20
2018-03-06T01:45:21.481Z,96.50
2018-03-06T01:46:24.026Z,96.70
2018-03-06T01:47:26.573Z,96.80
2018-03-06T01:48:29.165Z,97.00
2018-03-06T01:49:31.732Z,97.20
2018-03-06T01:50:34.241Z,97.00
2018-03-06T01:51:49.461Z,97.00
2018-03-06T01:52:52.005Z,97.00
2018-03-06T01:53:54.558Z,97.00
2018-03-06T01:54:57.104Z,97.00
2018-03-06T01:56:00.427Z,96.70
2018-03-06T01:57:03.008Z,96.70
2018-03-06T01:58:05.558Z,96.50
2018-03-06T01:59:08.134Z,96.40
2018-03-06T02:00:10.688Z,96.30
2018-03-06T02:01:13.253Z,96.10
2018-03-06T02:02:15.803Z,96.00
2018-03-06T02:03:19.162Z,96.20
2018-03-06T02:04:21.717Z,96.20
2018-03-06T02:05:24.270Z,96.00
2018-03-06T02:06:26.815Z,95.90
2018-03-06T02:07:29.370Z,95.90
2018-03-06T02:08:31.969Z,95.70
2018-03-06T02:09:34.509Z,95.90
2018-03-06T02:10:37.076Z,96.00
2018-03-06T02:11:39.633Z,96.00
2018-03-06T02:12:42.181Z,96.00
2018-03-06T02:13:45.547Z,96.10
2018-03-06T02:14:48.132Z,96.10
2018-03-06T02:15:51.452Z,96.10
2018-03-06T02:16:54.005Z,96.10
2018-03-06T02:17:56.554Z,95.90
2018-03-06T02:18:59.868Z,96.10
2018-03-06T02:20:02.457Z,96.10
2018-03-06T02:21:04.998Z,96.60
2018-03-06T02:22:07.557Z,96.80
2018-03-06T02:23:10.114Z,96.70
2018-03-06T02:24:13.418Z,96.20
2018-03-06T02:25:16.003Z,96.20
2018-03-06T02:26:18.550Z,96.10
2018-03-06T02:27:21.100Z,96.10
2018-03-06T02:28:24.406Z,96.10
2018-03-06T02:29:26.957Z,96.10
2018-03-06T02:30:29.546Z,96.10
2018-03-06T02:31:32.096Z,95.70
2018-03-06T02:32:34.645Z,95.90
2018-03-06T02:33:37.999Z,96.10
2018-03-06T02:34:40.585Z,96.10
2018-03-06T02:35:43.129Z,96.20
2018-03-06T02:36:45.681Z,96.20
2018-03-06T02:37:48.220Z,95.70
2018-03-06T02:38:50.786Z,95.80
2018-03-06T02:39:53.377Z,95.90
2018-03-06T02:40:56.682Z,95.60
2018-03-06T02:41:59.242Z,95.60
2018-03-06T02:43:01.828Z,95.70
2018-03-06T02:44:05.149Z,96.10
2018-03-06T02:45:07.691Z,96.00
2018-03-06T02:46:12.952Z,95.90
2018-03-06T02:47:15.548Z,95.90
2018-03-06T02:48:18.106Z,96.00
2018-03-06T02:49:20.648Z,96.00
2018-03-06T02:50:23.192Z,95.90
2018-03-06T02:51:25.732Z,95.80
2018-03-06T02:52:28.318Z,95.60
2018-03-06T02:53:31.639Z,96.30
2018-03-06T02:54:34.198Z,96.30
2018-03-06T02:55:36.748Z,96.20
2018-03-06T02:56:39.304Z,96.30
2018-03-06T02:57:42.660Z,96.30
2018-03-06T02:58:45.210Z,96.30
2018-03-06T02:59:47.777Z,96.10
2018-03-06T03:00:50.321Z,96.10
2018-03-06T03:01:52.869Z,96.20
2018-03-06T03:02:55.459Z,96.20
2018-03-06T03:03:58.009Z,96.20
2018-03-06T03:05:00.556Z,95.90
2018-03-06T03:06:03.906Z,95.60
2018-03-06T03:07:06.497Z,95.60
2018-03-06T03:08:09.818Z,95.40
2018-03-06T03:09:12.401Z,95.60
2018-03-06T03:10:14.937Z,95.80
2018-03-06T03:11:17.486Z,95.90
2018-03-06T03:12:20.837Z,96.50
2018-03-06T03:13:23.379Z,96.50
2018-03-06T03:14:25.942Z,96.60
2018-03-06T03:15:28.517Z,96.50
2018-03-06T03:16:31.108Z,96.60
2018-03-06T03:17:34.378Z,96.60
2018-03-06T03:18:36.983Z,96.20
2018-03-06T03:19:39.556Z,96.00
2018-03-06T03:20:42.870Z,96.30
2018-03-06T03:21:45.425Z,96.20
2018-03-06T03:22:47.985Z,96.40
2018-03-06T03:23:51.355Z,96.50
2018-03-06T03:24:53.911Z,96.40
2018-03-06T03:25:56.460Z,96.40
2018-03-06T03:26:59.004Z,96.10
2018-03-06T03:28:01.568Z,96.10
2018-03-06T03:29:04.162Z,96.00
2018-03-06T03:30:06.722Z,95.80
2018-03-06T03:31:09.270Z,95.90
2018-03-06T03:32:11.811Z,95.70
2018-03-06T03:33:14.354Z,95.70
2018-03-06T03:34:17.709Z,96.20
2018-03-06T03:35:20.248Z,95.90
2018-03-06T03:36:22.794Z,96.00
2018-03-06T03:37:25.354Z,96.10
2018-03-06T03:38:28.705Z,96.10
2018-03-06T03:39:31.672Z,96.10
2018-03-06T03:40:34.223Z,96.00
2018-03-06T03:41:36.770Z,96.20
2018-03-06T03:42:39.323Z,96.30
2018-03-06T03:43:42.665Z,96.20
2018-03-06T03:44:45.213Z,96.20
2018-03-06T03:45:47.775Z,96.30
2018-03-06T03:46:50.326Z,96.30
2018-03-06T03:47:52.916Z,96.10
2018-03-06T03:48:55.505Z,95.90
2018-03-06T03:49:58.073Z,95.70
2018-03-06T03:51:00.629Z,95.60
2018-03-06T03:52:03.217Z,95.50
2018-03-06T03:53:05.778Z,95.50
2018-03-06T03:54:08.353Z,95.40
2018-03-06T03:55:10.910Z,95.40
2018-03-06T03:56:13.494Z,95.40
2018-03-06T03:57:16.037Z,95.40
2018-03-06T03:58:18.603Z,95.50
2018-03-06T03:59:21.146Z,95.50
2018-03-06T04:00:24.714Z,95.80
2018-03-06T04:01:27.302Z,96.10
2018-03-06T04:02:29.852Z,96.20
2018-03-06T04:03:33.166Z,96.10
2018-03-06T04:04:35.745Z,96.00
2018-03-06T04:05:38.258Z,95.80
2018-03-06T04:06:40.842Z,95.60
2018-03-06T04:07:43.453Z,95.80
2018-03-06T04:08:46.006Z,95.70
2018-03-06T04:09:48.557Z,95.90
2018-03-06T04:10:51.104Z,95.90
2018-03-06T04:11:53.652Z,95.80
2018-03-06T04:12:56.249Z,95.70
2018-03-06T04:13:58.802Z,95.70
2018-03-06T04:15:01.356Z,95.70
2018-03-06T04:16:03.910Z,95.60
2018-03-06T04:17:07.226Z,95.50
2018-03-06T04:18:09.834Z,95.50
2018-03-06T04:19:12.373Z,96.10
2018-03-06T04:20:14.926Z,96.40
2018-03-06T04:21:17.476Z,96.70
2018-03-06T04:22:20.078Z,96.80
2018-03-06T04:23:22.638Z,96.70
2018-03-06T04:24:25.183Z,96.70
2018-03-06T04:25:27.734Z,96.50
2018-03-06T04:26:31.037Z,96.20
2018-03-06T04:27:34.865Z,96.20
2018-03-06T04:28:37.415Z,96.30
2018-03-06T04:29:40.009Z,96.20
2018-03-06T04:30:42.552Z,96.20
2018-03-06T04:31:45.102Z,96.10
2018-03-06T04:32:47.645Z,96.00
2018-03-06T04:33:50.984Z,96.00
2018-03-06T04:34:53.583Z,96.00
2018-03-06T04:35:56.902Z,96.30
2018-03-06T04:36:59.453Z,96.30
2018-03-06T04:38:02.013Z,96.20
2018-03-06T04:39:05.327Z,96.00
2018-03-06T04:40:07.896Z,96.00
2018-03-06T04:41:10.437Z,95.80
2018-03-06T04:42:12.988Z,95.80
2018-03-06T04:43:15.534Z,95.90
2018-03-06T04:44:18.065Z,96.20
2018-03-06T04:45:20.669Z,95.80
2018-03-06T04:46:23.217Z,95.80
2018-03-06T04:47:25.776Z,95.70
2018-03-06T04:48:28.329Z,95.90
2018-03-06T04:49:30.881Z,95.90
2018-03-06T04:50:33.464Z,95.70
2018-03-06T04:51:36.042Z,95.60
2018-03-06T04:52:38.584Z,95.60
2018-03-06T04:53:42.724Z,95.50
2018-03-06T04:54:45.280Z,95.50
2018-03-06T04:55:47.869Z,95.30
2018-03-06T04:56:50.422Z,95.40
2018-03-06T04:57:52.972Z,95.60
2018-03-06T04:58:55.517Z,95.70
2018-03-06T04:59:58.064Z,95.60
2018-03-06T05:01:01.402Z,95.50
2018-03-06T05:02:09.904Z,95.50
2018-03-06T05:03:12.481Z,95.40
2018-03-06T05:04:15.032Z,95.30
2018-03-06T05:05:17.585Z,95.30
2018-03-06T05:06:20.132Z,95.40
2018-03-06T05:07:22.716Z,95.30
2018-03-06T05:08:25.265Z,95.50
2018-03-06T05:09:27.816Z,95.50
2018-03-06T05:10:31.138Z,95.50
2018-03-06T05:11:33.725Z,95.50
2018-03-06T05:12:36.273Z,95.30
2018-03-06T05:13:38.814Z,95.40
2018-03-06T05:14:42.264Z,95.30
2018-03-06T05:15:44.805Z,95.40
2018-03-06T05:16:47.371Z,95.50
2018-03-06T05:17:49.968Z,95.70
2018-03-06T05:18:52.614Z,95.80
2018-03-06T05:19:55.052Z,95.70
2018-03-06T05:20:57.607Z,95.60
2018-03-06T05:22:00.153Z,95.70
2018-03-06T05:23:02.734Z,95.70
2018-03-06T05:24:05.284Z,95.60
2018-03-06T05:25:08.605Z,95.60
2018-03-06T05:26:11.185Z,95.60
2018-03-06T05:27:13.742Z,95.50
2018-03-06T05:28:16.301Z,95.60
2018-03-06T05:29:18.897Z,95.70
2018-03-06T05:30:21.444Z,95.60
2018-03-06T05:31:23.989Z,95.60
2018-03-06T05:32:26.586Z,95.60
2018-03-06T05:33:29.129Z,95.40
2018-03-06T05:34:31.681Z,95.40
2018-03-06T05:35:35.038Z,95.40
2018-03-06T05:36:37.588Z,95.50
2018-03-06T05:37:40.138Z,95.70
2018-03-06T05:38:42.693Z,95.70
2018-03-06T05:39:45.273Z,95.80
2018-03-06T05:40:47.817Z,96.00
2018-03-06T05:41:50.377Z,95.70
2018-03-06T05:42:52.956Z,95.50
2018-03-06T05:43:55.505Z,95.50
2018-03-06T05:44:58.062Z,95.30
2018-03-06T05:46:01.391Z,95.50
2018-03-06T05:47:03.934Z,95.50
2018-03-06T05:48:06.533Z,95.60
2018-03-06T05:49:09.082Z,95.50
2018-03-06T05:50:12.497Z,95.70
2018-03-06T05:51:15.015Z,95.70
2018-03-06T05:52:17.566Z,95.80
2018-03-06T05:53:20.923Z,95.30
2018-03-06T05:54:23.473Z,95.30
2018-03-06T05:55:26.029Z,95.10
2018-03-06T05:56:28.577Z,95.30
2018-03-06T05:57:31.145Z,95.50
2018-03-06T05:58:33.685Z,95.50
2018-03-06T05:59:37.009Z,95.50
2018-03-06T06:00:39.562Z,95.50
2018-03-06T06:01:42.141Z,95.50
2018-03-06T06:02:44.689Z,95.40
2018-03-06T06:03:47.245Z,95.40
2018-03-06T06:04:49.834Z,95.50
2018-03-06T06:05:52.380Z,95.50
2018-03-06T06:06:54.929Z,95.60
2018-03-06T06:07:58.277Z,95.60
2018-03-06T06:09:00.821Z,95.60
2018-03-06T06:10:03.364Z,95.40
2018-03-06T06:11:05.953Z,95.40
2018-03-06T06:12:08.493Z,95.30
2018-03-06T06:13:11.958Z,95.50
2018-03-06T06:14:14.565Z,95.50
2018-03-06T06:15:17.901Z,95.60
2018-03-06T06:16:20.433Z,95.60
2018-03-06T06:17:22.961Z,95.50
2018-03-06T06:18:26.261Z,96.00
2018-03-06T06:19:29.561Z,96.10
2018-03-06T06:20:32.129Z,96.10
2018-03-06T06:21:34.689Z,96.20
2018-03-06T06:22:37.216Z,96.30
2018-03-06T06:23:39.760Z,96.50
2018-03-06T06:24:42.318Z,96.70
2018-03-06T06:25:44.892Z,96.60
2018-03-06T06:26:47.434Z,96.60
2018-03-06T06:27:49.977Z,96.50
2018-03-06T06:28:53.268Z,96.40
2018-03-06T06:29:56.570Z,96.40
2018-03-06T06:30:59.133Z,96.30
2018-03-06T06:32:01.682Z,96.20
2018-03-06T06:33:05.716Z,96.20
2018-03-06T06:34:08.247Z,96.20
2018-03-06T06:35:10.790Z,96.10
2018-03-06T06:36:13.328Z,96.10
2018-03-06T06:37:16.690Z,96.10
2018-03-06T06:38:19.274Z,96.00
2018-03-06T06:39:21.803Z,96.10
2018-03-06T06:40:25.126Z,96.00
2018-03-06T06:41:27.721Z,96.00
2018-03-06T06:42:30.253Z,95.80
2018-03-06T06:43:32.797Z,95.60
2018-03-06T06:44:35.337Z,95.60
2018-03-06T06:45:38.638Z,95.50
2018-03-06T06:46:41.241Z,95.50
2018-03-06T06:47:43.777Z,95.50
2018-03-06T06:48:46.354Z,95.50
2018-03-06T06:49:48.879Z,95.50
2018-03-06T06:50:51.410Z,95.50
2018-03-06T06:51:53.973Z,95.40
2018-03-06T06:52:56.503Z,95.30
2018-03-06T06:53:59.037Z,95.30
2018-03-06T06:55:01.575Z,95.30
2018-03-06T06:56:04.109Z,95.40
2018-03-06T06:57:06.682Z,95.50
2018-03-06T06:58:09.214Z,95.50
2018-03-06T06:59:11.767Z,95.40
2018-03-06T07:00:14.293Z,95.30
2018-03-06T07:01:16.825Z,95.50
2018-03-06T07:02:20.144Z,95.20
2018-03-06T07:03:22.669Z,95.20
2018-03-06T07:04:25.273Z,95.10
2018-03-06T07:05:27.789Z,95.00
2018-03-06T07:06:30.330Z,94.80
2018-03-06T07:07:32.857Z,95.00
2018-03-06T07:08:35.411Z,94.50
2018-03-06T07:09:37.970Z,93.90
2018-03-06T07:10:41.270Z,92.90
2018-03-06T07:11:43.806Z,92.90
2018-03-06T07:12:46.334Z,92.50
2018-03-06T07:13:48.902Z,92.20
2018-03-06T07:14:51.465Z,92.20
2018-03-06T07:15:53.987Z,91.90
2018-03-06T07:16:57.315Z,91.10
2018-03-06T07:17:59.836Z,91.40
2018-03-06T07:19:02.366Z,91.00
2018-03-06T07:20:04.934Z,90.70
2018-03-06T07:21:07.466Z,90.50
2018-03-06T07:22:09.992Z,90.00
2018-03-06T07:23:12.521Z,89.00
2018-03-06T07:24:15.802Z,88.40
2018-03-06T07:25:18.373Z,88.20
2018-03-06T07:26:20.905Z,87.60
2018-03-06T07:27:23.428Z,88.80
2018-03-06T07:28:25.949Z,89.20
2018-03-06T07:29:28.474Z,89.50
2018-03-06T07:30:31.809Z,89.30
2018-03-06T07:31:34.337Z,89.30
2018-03-06T07:32:37.641Z,89.50
2018-03-06T07:33:40.167Z,89.50
2018-03-06T07:34:42.703Z,88.60
2018-03-06T07:35:45.273Z,87.90
2018-03-06T07:36:47.802Z,87.50
2018-03-06T07:37:50.333Z,87.60
2018-03-06T07:38:52.897Z,87.70
2018-03-06T07:39:55.417Z,88.60
2018-03-06T07:40:57.937Z,90.00
2018-03-06T07:42:00.501Z,90.30
2018-03-06T07:43:03.026Z,90.60
2018-03-06T07:44:05.550Z,91.00
2018-03-06T07:45:08.864Z,91.50
2018-03-06T07:46:11.402Z,91.50
2018-03-06T07:47:14.721Z,92.20
2018-03-06T07:48:17.246Z,92.20
2018-03-06T07:49:20.564Z,92.70
2018-03-06T07:50:23.097Z,92.70
2018-03-06T07:51:26.380Z,92.90
2018-03-06T07:52:29.674Z,92.90
2018-03-06T07:53:32.964Z,92.80
2018-03-06T07:54:35.521Z,92.80
2018-03-06T07:55:38.803Z,93.00
2018-03-06T07:56:42.105Z,92.80
2018-03-06T07:57:44.629Z,92.70
2018-03-06T07:58:47.165Z,92.80
2018-03-06T07:59:49.721Z,92.90
2018-03-06T08:00:52.246Z,93.00
2018-03-06T08:01:55.549Z,93.30
2018-03-06T08:02:58.102Z,93.30
2018-03-06T08:04:01.396Z,93.70
2018-03-06T08:05:03.951Z,93.70
2018-03-06T08:06:07.244Z,94.00
2018-03-06T08:07:09.772Z,94.00
2018-03-06T08:08:12.305Z,94.00
2018-03-06T08:09:14.825Z,94.00
2018-03-06T08:10:18.149Z,94.10
2018-03-06T08:11:20.666Z,94.10
2018-03-06T08:12:23.187Z,94.00
2018-03-06T08:13:25.714Z,93.80
2018-03-06T08:14:29.044Z,93.80
2018-03-06T08:15:31.572Z,93.80
2018-03-06T08:16:34.852Z,93.90
2018-03-06T08:17:38.128Z,93.70
2018-03-06T08:18:41.419Z,93.70
2018-03-06T08:19:44.741Z,93.70
2018-03-06T08:20:47.266Z,93.70
2018-03-06T08:21:50.580Z,93.70
2018-03-06T08:22:53.101Z,93.70
2018-03-06T08:23:56.427Z,93.90
2018-03-06T08:24:58.965Z,93.90
2018-03-06T08:26:02.249Z,94.00
2018-03-06T08:27:05.544Z,94.00
2018-03-06T08:28:08.081Z,93.90
2018-03-06T08:29:11.558Z,94.00
2018-03-06T08:30:14.015Z,94.00
2018-03-06T08:31:16.504Z,94.10
2018-03-06T08:32:19.025Z,94.20
2018-03-06T08:33:21.581Z,94.50
2018-03-06T08:35:32.826Z,94.50
2018-03-06T08:36:36.110Z,94.30
2018-03-06T08:37:39.401Z,94.30
2018-03-06T08:38:41.960Z,94.30
2018-03-06T08:39:44.478Z,94.20
2018-03-06T08:40:46.997Z,94.20
2018-03-06T08:41:49.906Z,94.10
2018-03-06T08:42:52.438Z,94.50
2018-03-06T08:43:55.765Z,93.80
2018-03-06T08:44:58.321Z,93.80
2018-03-06T08:46:00.840Z,93.90
2018-03-06T08:47:04.173Z,94.50
2018-03-06T08:48:06.698Z,94.50
2018-03-06T08:49:09.226Z,94.30
2018-03-06T08:50:11.749Z,94.20
2018-03-06T08:51:14.277Z,94.40
2018-03-06T08:52:16.833Z,94.20
2018-03-06T08:53:19.361Z,94.10
2018-03-06T08:54:21.913Z,94.00
2018-03-06T08:55:24.438Z,93.90
2018-03-06T08:56:26.959Z,94.00
2018-03-06T08:57:29.519Z,93.90
2018-03-06T08:58:32.078Z,94.00
2018-03-06T08:59:34.602Z,93.90
2018-03-06T09:00:37.226Z,94.10
2018-03-06T09:01:39.789Z,94.00
2018-03-06T09:02:42.314Z,93.90
2018-03-06T09:03:44.840Z,93.80
2018-03-06T09:04:47.358Z,93.90
2018-03-06T09:05:50.650Z,94.10
2018-03-06T09:06:53.216Z,94.10
2018-03-06T09:07:55.746Z,94.00
2018-03-06T09:08:58.281Z,93.90
2018-03-06T09:10:00.805Z,94.10
2018-03-06T09:11:04.131Z,93.80
2018-03-06T09:12:06.646Z,93.80
2018-03-06T09:13:09.165Z,93.70
2018-03-06T09:14:11.690Z,93.40
2018-03-06T09:15:15.019Z,93.20
2018-03-06T09:16:17.543Z,93.50
2018-03-06T09:17:21.807Z,92.80
2018-03-06T09:18:24.297Z,92.70
2018-03-06T09:19:26.848Z,92.80
2018-03-06T09:20:29.380Z,92.60
2018-03-06T09:21:31.902Z,92.80
2018-03-06T09:22:35.185Z,93.10
2018-03-06T09:23:38.474Z,92.60
2018-03-06T09:24:41.802Z,92.50
2018-03-06T09:25:44.325Z,92.50
2018-03-06T09:26:47.621Z,92.00
2018-03-06T09:27:50.142Z,92.00
2018-03-06T09:28:52.662Z,92.00
2018-03-06T09:29:55.213Z,92.00
2018-03-06T09:30:57.741Z,91.90
2018-03-06T09:32:00.266Z,91.60
2018-03-06T09:33:02.841Z,91.40
2018-03-06T09:34:05.361Z,91.10
2018-03-06T09:35:07.881Z,91.00
2018-03-06T09:36:11.167Z,90.60
2018-03-06T09:37:13.706Z,90.60
2018-03-06T09:38:16.273Z,90.00
2018-03-06T09:39:18.804Z,89.30
2018-03-06T09:40:21.321Z,89.20
2018-03-06T09:41:23.843Z,87.90
2018-03-06T09:42:27.134Z,85.50
2018-03-06T09:43:30.460Z,83.90
2018-03-06T09:44:33.010Z,83.90
2018-03-06T09:45:35.535Z,83.50
2018-03-06T09:46:38.065Z,83.50
2018-03-06T09:47:41.829Z,83.40
2018-03-06T09:48:44.381Z,82.60
2018-03-06T09:49:47.689Z,80.40
2018-03-06T09:50:50.218Z,80.40
2018-03-06T09:51:52.748Z,79.90
2018-03-06T09:52:55.281Z,79.20
2018-03-06T09:53:57.840Z,77.60
2018-03-06T09:55:00.360Z,76.80
2018-03-06T09:56:02.906Z,76.20
2018-03-06T09:57:05.433Z,75.20
2018-03-06T09:58:08.729Z,74.30
2018-03-06T09:59:11.286Z,74.30
2018-03-06T10:00:14.577Z,74.30
2018-03-06T10:01:17.094Z,74.40
2018-03-06T10:02:19.620Z,74.20
2018-03-06T10:03:22.202Z,73.10
2018-03-06T10:04:24.723Z,71.70
2018-03-06T10:05:28.047Z,71.40
2018-03-06T10:06:30.618Z,71.40
2018-03-06T10:07:33.199Z,70.90
2018-03-06T10:08:35.794Z,70.30
2018-03-06T10:09:38.426Z,68.80
2018-03-06T10:10:41.005Z,68.10
2018-03-06T10:11:43.590Z,66.70
2018-03-06T10:12:46.146Z,65.60
2018-03-06T10:13:48.718Z,65.60
2018-03-06T10:14:51.321Z,64.70
2018-03-06T10:15:54.657Z,64.20
2018-03-06T10:16:57.248Z,64.20
2018-03-06T10:17:59.867Z,64.50
2018-03-06T10:19:02.436Z,64.00
2018-03-06T10:20:05.034Z,65.00
2018-03-06T10:21:07.607Z,64.60
2018-03-06T10:22:10.167Z,64.40
2018-03-06T10:23:12.748Z,63.50
2018-03-06T10:24:15.315Z,63.10
2018-03-06T10:25:17.914Z,62.90
2018-03-06T10:26:20.487Z,62.50
2018-03-06T10:27:23.055Z,62.30
2018-03-06T10:28:25.646Z,62.60
2018-03-06T10:29:28.215Z,62.50
2018-03-06T10:30:30.770Z,61.70
2018-03-06T10:31:33.441Z,62.20
2018-03-06T10:32:36.809Z,64.20
2018-03-06T10:33:39.391Z,64.20
2018-03-06T10:34:41.921Z,65.20
2018-03-06T10:35:45.247Z,64.50
2018-03-06T10:36:47.856Z,64.40
2018-03-06T10:37:50.430Z,64.90
2018-03-06T10:38:52.989Z,64.70
2018-03-06T10:39:55.550Z,64.90
2018-03-06T10:40:58.110Z,64.70
2018-03-06T10:42:00.737Z,65.80
2018-03-06T10:43:03.302Z,65.50
2018-03-06T10:44:05.877Z,65.80
2018-03-06T10:45:08.438Z,65.20
2018-03-06T10:46:10.998Z,64.60
2018-03-06T10:47:13.620Z,65.20
2018-03-06T10:48:16.221Z,65.90
2018-03-06T10:49:19.542Z,65.90
2018-03-06T10:50:22.114Z,65.80
2018-03-06T10:51:24.671Z,65.70
2018-03-06T10:52:27.275Z,65.80
2018-03-06T10:53:29.829Z,66.00
2018-03-06T10:54:32.397Z,66.00
2018-03-06T10:55:34.962Z,66.70
2018-03-06T10:56:37.524Z,67.00
2018-03-06T10:57:40.130Z,67.50
2018-03-06T10:58:43.556Z,68.20
2018-03-06T10:59:46.144Z,68.20
2018-03-06T11:00:48.711Z,68.30
2018-03-06T11:01:57.251Z,68.10
2018-03-06T11:03:00.637Z,68.30
2018-03-06T11:04:03.195Z,68.30
2018-03-06T11:05:05.725Z,68.90
2018-03-06T11:06:08.250Z,70.10
2018-03-06T11:07:11.535Z,70.90
2018-03-06T11:08:14.903Z,71.10
2018-03-06T11:09:17.404Z,71.10
2018-03-06T11:10:19.933Z,71.20
2018-03-06T11:11:22.521Z,71.10
2018-03-06T11:12:25.070Z,71.40
2018-03-06T11:13:34.252Z,71.80
2018-03-06T11:14:36.782Z,71.80
2018-03-06T11:15:39.321Z,73.40
2018-03-06T11:16:41.917Z,74.20
2018-03-06T11:17:44.454Z,74.50
2018-03-06T11:18:46.974Z,74.70
2018-03-06T11:19:49.517Z,75.00
2018-03-06T11:20:52.046Z,74.70
2018-03-06T11:21:54.607Z,74.40
2018-03-06T11:22:57.136Z,73.60
2018-03-06T11:23:59.659Z,73.50
2018-03-06T11:25:02.225Z,74.10
2018-03-06T11:26:04.764Z,73.00
2018-03-06T11:27:07.281Z,74.00
2018-03-06T11:28:09.814Z,74.50
2018-03-06T11:29:12.356Z,73.20
2018-03-06T11:30:14.914Z,73.20
2018-03-06T11:31:17.437Z,72.90
2018-03-06T11:32:20.732Z,73.20
2018-03-06T11:33:23.291Z,73.10
2018-03-06T11:34:26.583Z,72.70
2018-03-06T11:35:29.178Z,72.70
2018-03-06T11:36:31.682Z,74.00
2018-03-06T11:37:35.699Z,73.70
2018-03-06T11:38:39.017Z,73.50
2018-03-06T11:39:41.542Z,74.40
2018-03-06T11:40:44.880Z,74.20
2018-03-06T11:41:47.413Z,74.20
2018-03-06T11:42:49.942Z,74.60
2018-03-06T11:43:52.505Z,74.90
2018-03-06T11:44:55.039Z,74.80
2018-03-06T11:45:57.569Z,74.70
2018-03-06T11:47:00.861Z,75.60
2018-03-06T11:48:03.387Z,75.50
2018-03-06T11:49:05.938Z,75.90
2018-03-06T11:50:09.219Z,76.20
2018-03-06T11:51:11.738Z,76.20
2018-03-06T11:52:14.299Z,75.70
2018-03-06T11:53:17.591Z,75.30
2018-03-06T11:54:20.173Z,75.30
2018-03-06T11:55:22.721Z,75.00
2018-03-06T11:56:25.234Z,76.00
2018-03-06T11:57:27.762Z,76.70
2018-03-06T11:58:30.285Z,77.20
2018-03-06T11:59:32.835Z,77.20
2018-03-06T12:00:35.358Z,76.30
2018-03-06T12:01:37.878Z,76.20
2018-03-06T12:02:40.398Z,76.40
2018-03-06T12:03:42.949Z,76.30
2018-03-06T12:04:46.273Z,75.30
2018-03-06T12:05:48.801Z,75.30
2018-03-06T12:06:52.085Z,75.00
2018-03-06T12:07:55.374Z,75.30
2018-03-06T12:08:57.936Z,75.30
2018-03-06T12:10:00.486Z,75.70
2018-03-06T12:11:03.819Z,74.90
2018-03-06T12:12:07.113Z,75.20
2018-03-06T12:13:09.633Z,75.10
2018-03-06T12:14:12.921Z,77.40
2018-03-06T12:15:15.480Z,77.40
2018-03-06T12:16:18.815Z,79.50
2018-03-06T12:17:21.309Z,79.50
2018-03-06T12:18:23.837Z,79.80
2018-03-06T12:19:26.399Z,80.40
2018-03-06T12:20:28.955Z,81.10
2018-03-06T12:21:31.508Z,81.40
2018-03-06T12:22:34.037Z,81.70
2018-03-06T12:23:36.556Z,81.60
2018-03-06T12:24:39.075Z,81.90
2018-03-06T12:25:41.630Z,82.30
2018-03-06T12:26:44.158Z,82.60
2018-03-06T12:27:46.702Z,82.40
2018-03-06T12:28:49.231Z,82.30
2018-03-06T12:29:51.749Z,81.40
2018-03-06T12:30:54.305Z,80.50
2018-03-06T12:31:56.826Z,79.50
2018-03-06T12:32:59.348Z,79.30
2018-03-06T12:34:01.886Z,79.00
2018-03-06T12:35:05.209Z,79.60
2018-03-06T12:36:07.758Z,79.70
2018-03-06T12:37:10.288Z,80.20
2018-03-06T12:38:12.801Z,80.80
2018-03-06T12:39:15.326Z,80.30
2018-03-06T12:40:18.609Z,80.10
2018-03-06T12:41:21.925Z,79.50
2018-03-06T12:42:24.453Z,79.50
2018-03-06T12:43:26.982Z,78.80
2018-03-06T12:44:29.501Z,78.90
2018-03-06T12:45:32.825Z,77.60
2018-03-06T12:46:35.374Z,77.60
2018-03-06T12:47:37.951Z,77.00
2018-03-06T12:48:40.478Z,76.50
2018-03-06T12:49:43.766Z,76.90
2018-03-06T12:50:47.041Z,76.80
2018-03-06T12:51:50.462Z,77.50
2018-03-06T12:52:53.029Z,77.50
2018-03-06T12:53:55.557Z,77.30
2018-03-06T12:54:58.896Z,77.70
2018-03-06T12:56:01.401Z,77.00
2018-03-06T12:57:03.927Z,77.30
2018-03-06T12:58:06.476Z,76.70
2018-03-06T12:59:08.994Z,76.80
2018-03-06T13:00:11.529Z,76.80
2018-03-06T13:01:14.061Z,77.00
2018-03-06T13:02:16.618Z,76.00
2018-03-06T13:03:19.898Z,76.30
2018-03-06T13:04:23.185Z,77.30
2018-03-06T13:05:26.471Z,77.60
2018-03-06T13:06:29.764Z,77.90
2018-03-06T13:07:32.317Z,77.90
2018-03-06T13:08:35.621Z,77.90
2018-03-06T13:09:38.143Z,77.80
2018-03-06T13:10:40.667Z,77.50
2018-03-06T13:11:43.199Z,77.30
2018-03-06T13:12:46.530Z,77.60
2018-03-06T13:13:49.071Z,77.60
2018-03-06T13:14:51.589Z,77.50
2018-03-06T13:15:54.115Z,77.50
2018-03-06T13:16:56.635Z,78.00
2018-03-06T13:17:59.207Z,78.30
2018-03-06T13:19:01.727Z,78.40
2018-03-06T13:20:04.280Z,78.60
2018-03-06T13:21:06.805Z,78.60
2018-03-06T13:22:10.141Z,78.20
2018-03-06T13:23:12.661Z,78.20
2018-03-06T13:24:15.962Z,78.30
2018-03-06T13:25:18.491Z,78.30
2018-03-06T13:26:21.009Z,78.50
2018-03-06T13:27:23.585Z,78.30
2018-03-06T13:28:26.153Z,78.10
2018-03-06T13:29:28.685Z,78.50